createdAt,value
2022-12-22T00:02:00.581Z,18.80
2022-12-22T00:04:46.820Z,17.73
2022-12-22T00:07:34.338Z,15.23
2022-12-22T00:10:20.292Z,15.80
2022-12-22T00:13:06.527Z,16.53
2022-12-22T00:15:54.477Z,15.70
2022-12-22T00:18:40.178Z,16.13
2022-12-22T00:21:29.405Z,16.03
2022-12-22T00:24:16.596Z,16.47
2022-12-22T00:27:04.251Z,15.13
2022-12-22T00:29:55.611Z,15.77
2022-12-22T00:32:42.601Z,15.73
2022-12-22T00:35:31.942Z,15.47
2022-12-22T00:38:17.891Z,14.43
2022-12-22T00:41:05.353Z,14.10
2022-12-22T00:43:50.992Z,14.10
2022-12-22T00:46:38.033Z,14.37
2022-12-22T00:49:24.003Z,13.23
2022-12-22T00:52:10.249Z,13.67
2022-12-22T00:54:56.206Z,14.30
2022-12-22T00:57:45.278Z,14.73
2022-12-22T01:00:34.520Z,15.03
2022-12-22T01:03:20.967Z,14.07
2022-12-22T01:06:07.473Z,13.70
2022-12-22T01:08:54.255Z,13.77
2022-12-22T01:11:40.258Z,13.97
2022-12-22T01:14:30.046Z,13.93
2022-12-22T01:17:16.054Z,13.90
2022-12-22T01:20:02.141Z,14.43
2022-12-22T01:22:48.502Z,14.27
2022-12-22T01:25:36.594Z,14.10
2022-12-22T01:28:23.018Z,13.37
2022-12-22T01:31:10.650Z,15.50
2022-12-22T01:33:56.366Z,14.43
2022-12-22T01:36:42.479Z,14.17
2022-12-22T01:39:28.547Z,14.83
2022-12-22T01:42:14.520Z,15.03
2022-12-22T01:45:00.398Z,14.63
2022-12-22T01:47:51.841Z,14.20
2022-12-22T01:50:43.180Z,14.63
2022-12-22T01:53:33.589Z,13.57
2022-12-22T01:56:20.128Z,13.53
2022-12-22T01:59:09.761Z,14.63
2022-12-22T02:01:57.063Z,14.03
2022-12-22T02:04:51.560Z,14.10
2022-12-22T02:08:03.243Z,14.60
2022-12-22T02:11:17.635Z,14.13
2022-12-22T02:14:16.952Z,13.47
2022-12-22T02:17:09.550Z,13.13
2022-12-22T02:20:17.251Z,13.43
2022-12-22T02:23:11.425Z,13.13
2022-12-22T02:26:06.853Z,13.07
2022-12-22T02:28:54.865Z,14.00
2022-12-22T02:31:41.161Z,13.93
2022-12-22T02:34:32.881Z,14.10
2022-12-22T02:37:26.791Z,14.00
2022-12-22T02:40:20.066Z,13.87
2022-12-22T02:43:12.972Z,12.67
2022-12-22T02:46:07.486Z,13.17
2022-12-22T02:48:59.575Z,12.30
2022-12-22T02:51:49.713Z,14.47
2022-12-22T02:54:36.839Z,13.17
2022-12-22T02:57:24.857Z,14.43
2022-12-22T03:00:10.931Z,14.20
2022-12-22T03:02:58.711Z,16.20
2022-12-22T03:05:44.808Z,14.50
2022-12-22T03:08:30.499Z,16.00
2022-12-22T03:11:16.208Z,15.40
2022-12-22T03:14:02.173Z,15.47
2022-12-22T03:16:48.065Z,15.30
2022-12-22T03:19:35.522Z,15.63
2022-12-22T03:22:21.576Z,14.77
2022-12-22T03:25:07.729Z,16.27
2022-12-22T03:27:36.171Z,16.40
2022-12-22T03:30:05.513Z,15.50
2022-12-22T03:32:33.985Z,14.90
2022-12-22T03:35:03.799Z,17.90
2022-12-22T03:37:32.257Z,16.63
2022-12-22T03:40:00.766Z,18.33
2022-12-22T03:42:46.491Z,16.43
2022-12-22T03:45:32.657Z,17.37
2022-12-22T03:48:01.164Z,18.13
2022-12-22T03:50:30.983Z,18.50
2022-12-22T03:52:59.447Z,18.03
2022-12-22T03:55:28.153Z,19.03
2022-12-22T03:57:56.724Z,20.03
2022-12-22T04:00:25.462Z,20.00
2022-12-22T04:02:54.025Z,18.37
2022-12-22T04:05:22.608Z,20.23
2022-12-22T04:07:52.429Z,20.10
2022-12-22T04:10:38.307Z,23.53
2022-12-22T04:13:06.741Z,22.00
2022-12-22T04:15:35.418Z,22.60
2022-12-22T04:18:03.899Z,24.07
2022-12-22T04:20:32.356Z,19.90
2022-12-22T04:23:02.718Z,20.10
2022-12-22T04:25:31.156Z,21.23
2022-12-22T04:28:00.394Z,20.97
2022-12-22T04:30:28.847Z,23.33
2022-12-22T04:32:57.280Z,21.43
2022-12-22T04:35:25.750Z,19.47
2022-12-22T04:37:54.170Z,19.53
2022-12-22T04:40:24.119Z,19.13
2022-12-22T04:42:52.558Z,21.83
2022-12-22T04:45:21.080Z,19.90
2022-12-22T04:47:49.644Z,20.63
2022-12-22T04:50:18.477Z,17.90
2022-12-22T04:52:47.305Z,19.30
2022-12-22T04:55:15.924Z,19.27
2022-12-22T04:57:45.827Z,17.50
2022-12-22T05:00:15.255Z,19.20
2022-12-22T05:02:43.901Z,18.10
2022-12-22T05:05:12.434Z,16.60
2022-12-22T05:07:40.961Z,20.17
2022-12-22T05:10:11.049Z,19.63
2022-12-22T05:12:57.556Z,17.03
2022-12-22T05:15:29.684Z,18.37
2022-12-22T05:17:59.054Z,18.80
2022-12-22T05:20:27.989Z,16.77
2022-12-22T05:22:56.511Z,17.40
2022-12-22T05:25:27.502Z,18.20
2022-12-22T05:27:59.925Z,18.40
2022-12-22T05:30:29.752Z,17.10
2022-12-22T05:32:58.296Z,16.87
2022-12-22T05:35:26.769Z,16.97
2022-12-22T05:37:55.222Z,16.00
2022-12-22T05:40:23.680Z,15.17
2022-12-22T05:42:52.094Z,13.57
2022-12-22T05:45:22.097Z,15.47
2022-12-22T05:47:53.425Z,14.00
2022-12-22T05:50:24.208Z,14.50
2022-12-22T05:53:05.868Z,14.83
2022-12-22T05:55:35.243Z,14.27
2022-12-22T05:58:03.775Z,13.47
2022-12-22T06:00:33.428Z,13.00
2022-12-22T06:03:03.485Z,14.03
2022-12-22T06:05:32.051Z,13.73
2022-12-22T06:08:00.500Z,12.67
2022-12-22T06:10:29.004Z,14.37
2022-12-22T06:12:57.563Z,11.97
2022-12-22T06:15:26.016Z,13.13
2022-12-22T06:17:54.435Z,13.93
2022-12-22T06:20:24.482Z,12.67
2022-12-22T06:22:53.024Z,12.97
2022-12-22T06:25:21.481Z,13.40
2022-12-22T06:27:49.943Z,13.70
2022-12-22T06:30:18.549Z,13.60
2022-12-22T06:32:47.212Z,11.97
2022-12-22T06:35:16.146Z,13.23
2022-12-22T06:37:46.041Z,14.40
2022-12-22T06:40:15.017Z,14.67
2022-12-22T06:43:06.044Z,14.40
2022-12-22T06:45:37.805Z,14.73
2022-12-22T06:48:06.656Z,14.37
2022-12-22T06:50:35.664Z,17.03
2022-12-22T06:53:06.300Z,16.87
2022-12-22T06:55:34.793Z,16.40
2022-12-22T06:58:03.474Z,16.20
2022-12-22T07:00:31.977Z,15.27
2022-12-22T07:03:00.791Z,17.07
2022-12-22T07:05:30.467Z,17.93
2022-12-22T07:08:05.922Z,15.63
2022-12-22T07:10:55.869Z,16.87
2022-12-22T07:13:24.552Z,17.33
2022-12-22T07:15:59.937Z,16.63
2022-12-22T07:18:30.959Z,16.53
2022-12-22T07:21:01.213Z,18.37
2022-12-22T07:23:30.281Z,17.60
2022-12-22T07:26:00.389Z,16.17
2022-12-22T07:28:28.986Z,16.87
2022-12-22T07:30:57.493Z,15.77
2022-12-22T07:33:26.050Z,16.13
2022-12-22T07:36:06.086Z,14.77
2022-12-22T07:38:36.940Z,16.63
2022-12-22T07:41:28.959Z,14.73
2022-12-22T07:43:58.093Z,16.77
2022-12-22T07:46:28.606Z,15.57
2022-12-22T07:49:14.879Z,15.87
2022-12-22T07:51:44.283Z,15.63
2022-12-22T07:54:14.959Z,16.63
2022-12-22T07:56:46.530Z,14.47
2022-12-22T07:59:15.827Z,14.93
2022-12-22T08:01:45.549Z,14.07
2022-12-22T08:04:15.268Z,13.00
2022-12-22T08:06:43.835Z,15.03
2022-12-22T08:09:16.094Z,13.97
2022-12-22T08:11:45.920Z,12.53
2022-12-22T08:14:14.356Z,12.33
2022-12-22T08:16:42.872Z,13.30
2022-12-22T08:19:11.449Z,13.53
2022-12-22T08:21:39.996Z,13.90
2022-12-22T08:24:08.974Z,13.67
2022-12-22T08:26:41.696Z,13.83
2022-12-22T08:29:15.127Z,14.07
2022-12-22T08:31:44.316Z,14.07
2022-12-22T08:34:16.313Z,13.33
2022-12-22T08:36:48.386Z,12.73
2022-12-22T08:39:18.176Z,12.33
2022-12-22T08:41:52.520Z,11.17
2022-12-22T08:44:24.165Z,11.53
2022-12-22T08:46:53.717Z,11.73
2022-12-22T08:49:22.695Z,11.53
2022-12-22T08:51:51.845Z,11.30
2022-12-22T08:54:20.860Z,9.80
2022-12-22T08:56:50.118Z,10.03
2022-12-22T08:59:18.723Z,9.77
2022-12-22T09:01:50.728Z,10.33
2022-12-22T09:04:21.395Z,9.17
2022-12-22T09:06:52.524Z,9.33
2022-12-22T09:09:21.911Z,9.37
2022-12-22T09:11:50.631Z,10.73
2022-12-22T09:14:19.496Z,9.47
2022-12-22T09:16:50.493Z,9.47
2022-12-22T09:19:19.119Z,10.67
2022-12-22T09:21:47.704Z,10.43
2022-12-22T09:24:16.491Z,8.17
2022-12-22T09:26:44.969Z,7.63
2022-12-22T09:29:15.237Z,8.70
2022-12-22T09:31:43.886Z,9.20
2022-12-22T09:34:18.117Z,8.67
2022-12-22T09:36:48.277Z,10.70
2022-12-22T09:39:17.132Z,10.90
2022-12-22T09:41:49.397Z,9.07
2022-12-22T09:44:24.548Z,9.37
2022-12-22T09:46:55.158Z,8.90
2022-12-22T09:49:25.306Z,8.10
2022-12-22T09:51:57.331Z,8.37
2022-12-22T09:54:27.612Z,8.37
2022-12-22T09:56:56.727Z,9.27
2022-12-22T09:59:28.996Z,7.93
2022-12-22T10:02:06.571Z,6.90
2022-12-22T10:04:52.222Z,7.20
2022-12-22T10:07:28.501Z,6.27
2022-12-22T10:09:57.249Z,6.73
2022-12-22T10:12:27.403Z,7.03
2022-12-22T10:14:56.371Z,6.83
2022-12-22T10:17:28.175Z,6.67
2022-12-22T10:20:21.040Z,7.43
2022-12-22T10:22:51.339Z,8.07
2022-12-22T10:25:52.417Z,6.53
2022-12-22T10:28:24.378Z,6.23
2022-12-22T10:31:15.546Z,6.10
2022-12-22T10:33:47.608Z,6.50
2022-12-22T10:36:23.347Z,6.40
2022-12-22T10:39:00.166Z,5.37
2022-12-22T10:41:31.787Z,6.50
2022-12-22T10:44:02.800Z,7.33
2022-12-22T10:46:35.476Z,7.53
2022-12-22T10:49:19.128Z,6.60
2022-12-22T10:51:53.109Z,7.80
2022-12-22T10:54:30.516Z,6.27
2022-12-22T10:57:05.409Z,7.23
2022-12-22T10:59:34.735Z,7.63
2022-12-22T11:02:24.574Z,8.00
2022-12-22T11:04:54.362Z,7.50
2022-12-22T11:07:25.481Z,8.63
2022-12-22T11:09:54.061Z,8.67
2022-12-22T11:12:30.151Z,9.60
2022-12-22T11:15:05.207Z,7.70
2022-12-22T11:17:44.050Z,9.17
2022-12-22T11:20:36.456Z,10.30
2022-12-22T11:23:12.725Z,9.37
2022-12-22T11:25:49.664Z,9.70
2022-12-22T11:28:28.893Z,9.60
2022-12-22T11:31:12.291Z,10.67
2022-12-22T11:33:53.340Z,12.00
2022-12-22T11:36:29.021Z,12.80
2022-12-22T11:39:08.134Z,14.03
2022-12-22T11:41:50.869Z,12.90
2022-12-22T11:44:36.249Z,12.07
2022-12-22T11:47:14.457Z,12.17
2022-12-22T11:50:59.671Z,11.23
2022-12-22T11:53:07.097Z,10.57
2022-12-22T11:55:41.555Z,10.83
2022-12-22T11:58:26.978Z,9.30
2022-12-22T12:01:20.338Z,8.30
2022-12-22T12:04:11.347Z,7.93
2022-12-22T12:06:56.147Z,6.43
2022-12-22T12:09:40.451Z,6.37
2022-12-22T12:12:19.174Z,6.40
2022-12-22T12:14:57.582Z,5.43
2022-12-22T12:17:34.989Z,6.27
2022-12-22T12:20:40.320Z,5.00
2022-12-22T12:23:20.948Z,5.70
2022-12-22T12:25:57.613Z,5.63
2022-12-22T12:28:44.562Z,6.90
2022-12-22T12:31:20.036Z,6.27
2022-12-22T12:33:56.288Z,6.70
2022-12-22T12:36:32.072Z,7.33
2022-12-22T12:39:10.633Z,6.63
2022-12-22T12:41:48.995Z,7.63
2022-12-22T12:44:23.971Z,7.87
2022-12-22T12:47:00.242Z,9.40
2022-12-22T12:49:58.137Z,9.90
2022-12-22T12:53:05.879Z,9.90
2022-12-22T12:55:51.730Z,10.90
2022-12-22T12:58:49.407Z,10.77
2022-12-22T13:01:59.777Z,10.80
2022-12-22T13:05:13.200Z,9.23
2022-12-22T13:08:10.823Z,9.07
2022-12-22T13:10:42.656Z,11.07
2022-12-22T13:13:13.184Z,10.60
2022-12-22T13:15:45.045Z,10.53
2022-12-22T13:18:49.958Z,10.13
2022-12-22T13:24:27.638Z,12.73
2022-12-22T13:27:04.598Z,11.37
2022-12-22T13:29:42.513Z,12.17
2022-12-22T13:32:30.913Z,12.90
2022-12-22T13:35:34.812Z,12.90
2022-12-22T13:38:04.564Z,13.53
2022-12-22T13:40:40.791Z,13.87
2022-12-22T13:43:13.595Z,13.13
2022-12-22T13:45:44.926Z,13.80
2022-12-22T13:48:16.208Z,12.67
2022-12-22T13:50:49.917Z,14.63
2022-12-22T13:56:16.796Z,14.53
2022-12-22T13:58:47.680Z,13.80
2022-12-22T14:01:19.541Z,13.40
2022-12-22T14:04:00.287Z,14.53
2022-12-22T14:06:32.965Z,14.60
2022-12-22T14:09:15.523Z,13.30
2022-12-22T14:11:51.568Z,13.67
2022-12-22T14:14:25.016Z,14.90
2022-12-22T14:16:55.847Z,14.37
2022-12-22T14:19:25.732Z,15.37
2022-12-22T14:22:07.464Z,15.20
2022-12-22T14:24:42.921Z,15.03
2022-12-22T14:27:19.617Z,13.37
2022-12-22T14:29:48.498Z,13.37
2022-12-22T14:32:36.278Z,15.57
2022-12-22T14:35:05.514Z,14.87
2022-12-22T14:37:35.367Z,16.57
2022-12-22T14:40:04.131Z,15.77
2022-12-22T14:42:33.317Z,16.60
2022-12-22T14:45:02.018Z,14.87
2022-12-22T14:47:30.868Z,16.93
2022-12-22T14:50:04.218Z,16.50
2022-12-22T14:52:46.479Z,16.20
2022-12-22T14:55:26.439Z,16.80
2022-12-22T14:57:57.632Z,16.40
2022-12-22T15:00:33.216Z,18.13
2022-12-22T15:03:04.479Z,14.77
2022-12-22T15:05:36.239Z,17.27
2022-12-22T15:08:09.776Z,18.97
2022-12-22T15:10:42.197Z,16.90
2022-12-22T15:13:23.260Z,17.30
2022-12-22T15:15:52.217Z,17.83
2022-12-22T15:18:25.387Z,17.47
2022-12-22T15:20:54.130Z,16.90
2022-12-22T15:23:24.137Z,18.60
2022-12-22T15:25:52.894Z,19.67
2022-12-22T15:28:21.430Z,18.30
2022-12-22T15:30:50.017Z,20.10
2022-12-22T15:33:20.443Z,18.20
2022-12-22T15:35:49.043Z,20.00
2022-12-22T15:38:19.232Z,19.23
2022-12-22T15:40:49.576Z,18.00
2022-12-22T15:46:07.945Z,18.80
2022-12-22T15:48:39.477Z,19.77
2022-12-22T15:51:12.477Z,19.40
2022-12-22T15:53:40.901Z,19.37
2022-12-22T15:56:17.915Z,21.43
2022-12-22T15:58:46.761Z,19.93
2022-12-22T16:01:15.339Z,19.47
2022-12-22T16:03:44.196Z,19.83
2022-12-22T16:06:15.091Z,20.23
2022-12-22T16:08:47.091Z,21.10
2022-12-22T16:11:17.330Z,20.63
2022-12-22T16:13:46.699Z,19.23
2022-12-22T16:16:15.327Z,20.73
2022-12-22T16:18:43.905Z,18.50
2022-12-22T16:21:17.642Z,20.13
2022-12-22T16:23:48.889Z,20.53
2022-12-22T16:26:20.877Z,19.43
2022-12-22T16:28:49.558Z,20.17
2022-12-22T16:31:20.344Z,19.83
2022-12-22T16:33:49.700Z,20.13
2022-12-22T16:36:18.433Z,19.37
2022-12-22T16:38:47.618Z,19.13
2022-12-22T16:41:23.608Z,17.93
2022-12-22T16:43:54.175Z,16.70
2022-12-22T16:46:24.243Z,16.60
2022-12-22T16:48:54.659Z,17.60
2022-12-22T16:51:26.242Z,17.80
2022-12-22T16:53:55.201Z,16.77
2022-12-22T16:56:26.713Z,17.97
2022-12-22T16:58:55.469Z,15.70
2022-12-22T17:01:32.932Z,15.13
2022-12-22T17:04:05.450Z,15.13
2022-12-22T17:06:34.192Z,15.00
2022-12-22T17:09:03.987Z,14.57
2022-12-22T17:11:34.572Z,14.97
2022-12-22T17:14:07.546Z,14.90
2022-12-22T17:16:36.130Z,15.07
2022-12-22T17:19:04.874Z,13.97
2022-12-22T17:21:34.275Z,14.60
2022-12-22T17:24:04.685Z,13.57
2022-12-22T17:26:37.517Z,13.20
2022-12-22T17:29:06.234Z,15.37
2022-12-22T17:31:34.841Z,15.50
2022-12-22T17:34:07.126Z,13.23
2022-12-22T17:36:39.611Z,13.30
2022-12-22T17:39:13.232Z,14.93
2022-12-22T17:41:43.488Z,13.03
2022-12-22T17:44:21.787Z,13.53
2022-12-22T17:46:50.949Z,13.13
2022-12-22T17:49:21.951Z,12.93
2022-12-22T17:51:50.981Z,13.57
2022-12-22T17:54:24.559Z,11.87
2022-12-22T17:57:01.589Z,11.60
2022-12-22T17:59:30.772Z,12.47
2022-12-22T18:02:00.468Z,11.17
2022-12-22T18:04:29.197Z,11.13
2022-12-22T18:06:58.019Z,12.07
2022-12-22T18:09:27.497Z,12.03
2022-12-22T18:11:57.311Z,12.27
2022-12-22T18:14:27.390Z,11.97
2022-12-22T18:16:55.893Z,12.40
2022-12-22T18:19:24.438Z,12.33
2022-12-22T18:21:52.991Z,13.20
2022-12-22T18:24:21.536Z,12.40
2022-12-22T18:26:49.968Z,12.57
2022-12-22T18:29:20.541Z,11.73
2022-12-22T18:31:49.113Z,14.40
2022-12-22T18:34:17.760Z,12.60
2022-12-22T18:36:47.683Z,11.87
2022-12-22T18:39:18.915Z,11.63
2022-12-22T18:41:47.751Z,12.93
2022-12-22T18:44:17.787Z,15.33
2022-12-22T18:46:48.754Z,15.67
2022-12-22T18:49:17.513Z,13.13
2022-12-22T18:51:46.588Z,21.13
2022-12-22T18:54:23.870Z,17.13
2022-12-22T18:56:52.590Z,10.43
2022-12-22T18:59:25.081Z,11.77
2022-12-22T19:02:11.449Z,13.43
2022-12-22T19:04:40.046Z,12.00
2022-12-22T19:07:13.785Z,13.77
2022-12-22T19:09:42.749Z,13.53
2022-12-22T19:12:13.985Z,16.47
2022-12-22T19:14:44.231Z,16.00
2022-12-22T19:17:16.053Z,15.43
2022-12-22T19:19:44.538Z,15.27
2022-12-22T19:22:14.376Z,17.13
2022-12-22T19:24:44.815Z,27.20
2022-12-22T19:27:17.693Z,20.90
2022-12-22T19:29:46.616Z,26.13
2022-12-22T19:32:24.080Z,24.10
2022-12-22T19:34:52.981Z,18.87
2022-12-22T19:37:21.634Z,19.10
2022-12-22T19:39:50.209Z,16.57
2022-12-22T19:42:22.780Z,19.27
2022-12-22T19:44:51.386Z,26.33
2022-12-22T19:47:24.345Z,25.17
2022-12-22T19:49:52.957Z,19.47
2022-12-22T19:52:21.528Z,16.47
2022-12-22T19:54:50.060Z,15.80
2022-12-22T19:57:22.167Z,16.63
2022-12-22T19:59:53.266Z,17.07
2022-12-22T20:02:27.285Z,17.27
2022-12-22T20:04:57.149Z,17.50
2022-12-22T20:07:27.781Z,17.70
2022-12-22T20:09:56.389Z,17.63
2022-12-22T20:12:28.993Z,14.43
2022-12-22T20:14:58.073Z,16.90
2022-12-22T20:17:28.038Z,17.03
2022-12-22T20:19:56.546Z,18.30
2022-12-22T20:22:25.305Z,17.90
2022-12-22T20:24:54.701Z,15.83
2022-12-22T20:27:27.546Z,14.80
2022-12-22T20:29:56.914Z,15.23
2022-12-22T20:32:28.276Z,13.90
2022-12-22T20:34:57.289Z,12.80
2022-12-22T20:37:26.230Z,11.80
2022-12-22T20:39:54.792Z,13.40
2022-12-22T20:42:25.614Z,11.37
2022-12-22T20:45:04.108Z,10.23
2022-12-22T20:47:35.421Z,10.40
2022-12-22T20:50:04.645Z,12.03
2022-12-22T20:52:33.248Z,9.57
2022-12-22T20:55:01.696Z,10.03
2022-12-22T20:57:30.203Z,10.23
2022-12-22T20:59:58.663Z,13.07
2022-12-22T21:02:28.881Z,18.83
2022-12-22T21:04:59.168Z,13.50
2022-12-22T21:07:27.784Z,10.13
2022-12-22T21:09:56.315Z,14.63
2022-12-22T21:12:24.883Z,11.80
2022-12-22T21:14:53.399Z,10.27
2022-12-22T21:17:22.114Z,11.40
2022-12-22T21:19:50.813Z,8.17
2022-12-22T21:22:20.679Z,7.87
2022-12-22T21:24:49.319Z,7.00
2022-12-22T21:27:21.176Z,7.17
2022-12-22T21:29:49.759Z,7.03
2022-12-22T21:32:18.292Z,7.47
2022-12-22T21:34:46.778Z,7.10
2022-12-22T21:37:18.677Z,6.43
2022-12-22T21:39:48.587Z,12.70
2022-12-22T21:42:18.023Z,12.40
2022-12-22T21:44:47.043Z,11.00
2022-12-22T21:47:18.516Z,7.83
2022-12-22T21:49:47.228Z,8.17
2022-12-22T21:52:15.695Z,7.90
2022-12-22T21:54:44.142Z,8.63
2022-12-22T21:57:16.113Z,5.60
2022-12-22T21:59:44.599Z,5.17
2022-12-22T22:02:16.720Z,6.70
2022-12-22T22:04:52.083Z,7.27
2022-12-22T22:07:22.921Z,7.87
2022-12-22T22:09:51.398Z,6.33
2022-12-22T22:12:37.874Z,5.97
2022-12-22T22:15:08.017Z,6.23
2022-12-22T22:17:36.484Z,4.80
2022-12-22T22:20:06.523Z,4.27
2022-12-22T22:22:35.032Z,5.10
2022-12-22T22:25:03.689Z,5.30
2022-12-22T22:27:33.606Z,5.27
2022-12-22T22:30:02.136Z,5.40
2022-12-22T22:32:30.611Z,5.70
2022-12-22T22:34:59.181Z,7.27
2022-12-22T22:37:27.748Z,6.93
2022-12-22T22:39:56.227Z,5.53
2022-12-22T22:42:24.690Z,5.50
2022-12-22T22:44:54.553Z,5.37
2022-12-22T22:47:22.966Z,6.60
2022-12-22T22:49:51.425Z,6.40
2022-12-22T22:52:19.899Z,6.03
2022-12-22T22:54:48.316Z,7.37
2022-12-22T22:57:17.493Z,7.20
2022-12-22T22:59:46.043Z,8.50
2022-12-22T23:02:17.081Z,7.87
2022-12-22T23:04:46.178Z,7.30
2022-12-22T23:07:14.634Z,15.07
2022-12-22T23:09:43.183Z,10.87
2022-12-22T23:12:11.803Z,9.23
2022-12-22T23:14:40.272Z,9.47
2022-12-22T23:17:08.874Z,9.80
2022-12-22T23:19:38.937Z,11.10
2022-12-22T23:22:07.418Z,8.67
2022-12-22T23:24:36.036Z,9.17
2022-12-22T23:27:04.859Z,10.47
2022-12-22T23:29:33.546Z,8.97
2022-12-22T23:32:02.215Z,9.47
2022-12-22T23:34:30.889Z,8.90
2022-12-22T23:37:00.852Z,9.23
2022-12-22T23:39:29.495Z,10.20
2022-12-22T23:41:57.943Z,11.10
2022-12-22T23:44:26.706Z,10.13
2022-12-22T23:46:55.292Z,10.13
2022-12-22T23:49:24.098Z,10.00
2022-12-22T23:51:52.580Z,11.07
2022-12-22T23:54:22.420Z,12.40
2022-12-22T23:56:50.881Z,12.63
2022-12-22T23:59:19.335Z,14.17
